sensor_id;sensor_type;location;lat;lon;timestamp;temperature;humidity
42907;DHT22;28552;51.146;6.576;2022-09-13T00:00:17;16.90;99.90
42907;DHT22;28552;51.146;6.576;2022-09-13T00:03:19;16.80;99.90
42907;DHT22;28552;51.146;6.576;2022-09-13T00:06:21;16.70;99.90
42907;DHT22;28552;51.146;6.576;2022-09-13T00:09:21;16.70;99.90
42907;DHT22;28552;51.146;6.576;2022-09-13T00:12:22;16.70;99.90
42907;DHT22;28552;51.146;6.576;2022-09-13T00:15:22;16.80;99.90
42907;DHT22;28552;51.146;6.576;2022-09-13T00:18:23;16.90;99.90
42907;DHT22;28552;51.146;6.576;2022-09-13T00:21:24;17.00;99.90
42907;DHT22;28552;51.146;6.576;2022-09-13T00:24:25;17.00;99.90
42907;DHT22;28552;51.146;6.576;2022-09-13T00:27:25;17.10;99.90
42907;DHT22;28552;51.146;6.576;2022-09-13T00:30:26;17.20;99.90
42907;DHT22;28552;51.146;6.576;2022-09-13T00:33:26;17.20;99.90
42907;DHT22;28552;51.146;6.576;2022-09-13T00:36:27;17.20;99.90
42907;DHT22;28552;51.146;6.576;2022-09-13T00:39:28;17.30;99.90
42907;DHT22;28552;51.146;6.576;2022-09-13T00:42:30;17.40;99.90
42907;DHT22;28552;51.146;6.576;2022-09-13T00:45:32;17.40;99.90
42907;DHT22;28552;51.146;6.576;2022-09-13T00:48:33;17.40;99.90
42907;DHT22;28552;51.146;6.576;2022-09-13T00:51:36;17.40;99.90
42907;DHT22;28552;51.146;6.576;2022-09-13T00:54:41;17.50;99.90
42907;DHT22;28552;51.146;6.576;2022-09-13T00:57:44;17.50;99.90
42907;DHT22;28552;51.146;6.576;2022-09-13T01:00:46;17.50;99.90
42907;DHT22;28552;51.146;6.576;2022-09-13T01:03:47;17.50;99.90
42907;DHT22;28552;51.146;6.576;2022-09-13T01:06:50;17.50;99.90
42907;DHT22;28552;51.146;6.576;2022-09-13T01:09:52;17.50;99.90
42907;DHT22;28552;51.146;6.576;2022-09-13T01:13:00;17.50;99.90
42907;DHT22;28552;51.146;6.576;2022-09-13T01:16:05;17.50;99.90
42907;DHT22;28552;51.146;6.576;2022-09-13T01:19:06;17.50;99.90
42907;DHT22;28552;51.146;6.576;2022-09-13T01:22:28;17.50;99.90
42907;DHT22;28552;51.146;6.576;2022-09-13T01:25:48;17.40;99.90
42907;DHT22;28552;51.146;6.576;2022-09-13T01:28:57;17.40;99.90
42907;DHT22;28552;51.146;6.576;2022-09-13T01:32:20;17.40;99.90
42907;DHT22;28552;51.146;6.576;2022-09-13T01:38:55;17.40;99.90
42907;DHT22;28552;51.146;6.576;2022-09-13T01:48:19;17.40;99.90
42907;DHT22;28552;51.146;6.576;2022-09-13T01:54:35;17.30;99.90
42907;DHT22;28552;51.146;6.576;2022-09-13T01:57:45;17.30;99.90
42907;DHT22;28552;51.146;6.576;2022-09-13T02:01:05;17.30;99.90
42907;DHT22;28552;51.146;6.576;2022-09-13T02:04:12;17.30;99.90
42907;DHT22;28552;51.146;6.576;2022-09-13T02:07:20;17.30;99.90
42907;DHT22;28552;51.146;6.576;2022-09-13T02:10:28;17.30;99.90
42907;DHT22;28552;51.146;6.576;2022-09-13T02:13:35;17.30;99.90
42907;DHT22;28552;51.146;6.576;2022-09-13T02:16:42;17.40;99.90
42907;DHT22;28552;51.146;6.576;2022-09-13T02:20:00;17.40;99.90
42907;DHT22;28552;51.146;6.576;2022-09-13T02:23:05;17.40;99.90
42907;DHT22;28552;51.146;6.576;2022-09-13T02:26:11;17.40;99.90
42907;DHT22;28552;51.146;6.576;2022-09-13T02:29:15;17.40;99.90
42907;DHT22;28552;51.146;6.576;2022-09-13T02:32:24;17.40;99.90
42907;DHT22;28552;51.146;6.576;2022-09-13T02:35:31;17.40;99.90
42907;DHT22;28552;51.146;6.576;2022-09-13T02:38:40;17.40;99.90
42907;DHT22;28552;51.146;6.576;2022-09-13T02:45:01;17.50;99.90
42907;DHT22;28552;51.146;6.576;2022-09-13T02:48:08;17.50;99.90
42907;DHT22;28552;51.146;6.576;2022-09-13T03:01:20;17.50;99.90
42907;DHT22;28552;51.146;6.576;2022-09-13T03:04:21;17.50;99.90
42907;DHT22;28552;51.146;6.576;2022-09-13T03:07:22;17.40;99.90
42907;DHT22;28552;51.146;6.576;2022-09-13T03:10:23;17.40;99.90
42907;DHT22;28552;51.146;6.576;2022-09-13T03:13:35;17.50;99.90
42907;DHT22;28552;51.146;6.576;2022-09-13T03:17:04;17.40;99.90
42907;DHT22;28552;51.146;6.576;2022-09-13T03:23:34;17.30;99.90
42907;DHT22;28552;51.146;6.576;2022-09-13T03:30:10;17.20;99.90
42907;DHT22;28552;51.146;6.576;2022-09-13T03:33:20;17.10;99.90
42907;DHT22;28552;51.146;6.576;2022-09-13T03:36:30;17.00;99.90
42907;DHT22;28552;51.146;6.576;2022-09-13T03:39:39;17.00;99.90
42907;DHT22;28552;51.146;6.576;2022-09-13T03:42:48;17.00;99.90
42907;DHT22;28552;51.146;6.576;2022-09-13T03:45:51;17.00;99.90
42907;DHT22;28552;51.146;6.576;2022-09-13T03:48:54;17.00;99.90
42907;DHT22;28552;51.146;6.576;2022-09-13T03:51:56;17.00;99.90
42907;DHT22;28552;51.146;6.576;2022-09-13T03:54:57;17.00;99.90
42907;DHT22;28552;51.146;6.576;2022-09-13T03:57:58;17.00;99.90
42907;DHT22;28552;51.146;6.576;2022-09-13T04:00:58;16.90;99.90
42907;DHT22;28552;51.146;6.576;2022-09-13T04:03:59;17.00;99.90
42907;DHT22;28552;51.146;6.576;2022-09-13T04:07:00;17.00;99.90
42907;DHT22;28552;51.146;6.576;2022-09-13T04:10:03;17.00;99.90
42907;DHT22;28552;51.146;6.576;2022-09-13T04:13:04;17.00;99.90
42907;DHT22;28552;51.146;6.576;2022-09-13T04:16:06;17.00;99.90
42907;DHT22;28552;51.146;6.576;2022-09-13T04:19:06;17.00;99.90
42907;DHT22;28552;51.146;6.576;2022-09-13T04:22:07;17.00;99.90
42907;DHT22;28552;51.146;6.576;2022-09-13T04:25:08;17.00;99.90
42907;DHT22;28552;51.146;6.576;2022-09-13T04:28:08;17.10;99.90
42907;DHT22;28552;51.146;6.576;2022-09-13T04:31:09;17.10;99.90
42907;DHT22;28552;51.146;6.576;2022-09-13T04:34:09;17.10;99.90
42907;DHT22;28552;51.146;6.576;2022-09-13T04:37:10;17.10;99.90
42907;DHT22;28552;51.146;6.576;2022-09-13T04:40:11;17.10;99.90
42907;DHT22;28552;51.146;6.576;2022-09-13T04:43:12;17.10;99.90
42907;DHT22;28552;51.146;6.576;2022-09-13T04:46:12;17.10;99.90
42907;DHT22;28552;51.146;6.576;2022-09-13T04:49:14;17.10;99.90
42907;DHT22;28552;51.146;6.576;2022-09-13T04:52:15;17.10;99.90
42907;DHT22;28552;51.146;6.576;2022-09-13T04:55:15;17.10;99.90
42907;DHT22;28552;51.146;6.576;2022-09-13T04:58:16;17.00;99.90
42907;DHT22;28552;51.146;6.576;2022-09-13T05:01:17;17.00;99.90
42907;DHT22;28552;51.146;6.576;2022-09-13T05:04:18;17.00;99.90
42907;DHT22;28552;51.146;6.576;2022-09-13T05:07:18;17.00;99.90
42907;DHT22;28552;51.146;6.576;2022-09-13T05:10:19;17.00;99.90
42907;DHT22;28552;51.146;6.576;2022-09-13T05:13:19;17.00;99.90
42907;DHT22;28552;51.146;6.576;2022-09-13T05:16:22;17.00;99.90
42907;DHT22;28552;51.146;6.576;2022-09-13T05:19:23;17.00;99.90
42907;DHT22;28552;51.146;6.576;2022-09-13T05:22:23;17.00;99.90
42907;DHT22;28552;51.146;6.576;2022-09-13T05:25:24;16.90;99.90
42907;DHT22;28552;51.146;6.576;2022-09-13T05:28:27;16.90;99.90
42907;DHT22;28552;51.146;6.576;2022-09-13T05:31:31;16.90;99.90
42907;DHT22;28552;51.146;6.576;2022-09-13T05:34:32;16.90;99.90
42907;DHT22;28552;51.146;6.576;2022-09-13T05:37:32;16.90;99.90
42907;DHT22;28552;51.146;6.576;2022-09-13T05:40:33;16.80;99.90
42907;DHT22;28552;51.146;6.576;2022-09-13T05:43:34;16.90;99.90
42907;DHT22;28552;51.146;6.576;2022-09-13T05:46:35;16.90;99.90
42907;DHT22;28552;51.146;6.576;2022-09-13T05:49:36;16.90;99.90
42907;DHT22;28552;51.146;6.576;2022-09-13T05:52:36;16.90;99.90
42907;DHT22;28552;51.146;6.576;2022-09-13T05:55:37;16.90;99.90
42907;DHT22;28552;51.146;6.576;2022-09-13T05:58:39;16.90;99.90
42907;DHT22;28552;51.146;6.576;2022-09-13T06:01:40;17.00;99.90
42907;DHT22;28552;51.146;6.576;2022-09-13T06:04:40;17.00;99.90
42907;DHT22;28552;51.146;6.576;2022-09-13T06:07:41;17.00;99.90
42907;DHT22;28552;51.146;6.576;2022-09-13T06:10:42;17.00;99.90
42907;DHT22;28552;51.146;6.576;2022-09-13T06:13:42;17.00;99.90
42907;DHT22;28552;51.146;6.576;2022-09-13T06:16:43;17.10;99.90
42907;DHT22;28552;51.146;6.576;2022-09-13T06:19:44;17.10;99.90
42907;DHT22;28552;51.146;6.576;2022-09-13T06:22:46;17.10;99.90
42907;DHT22;28552;51.146;6.576;2022-09-13T06:25:47;17.10;99.90
42907;DHT22;28552;51.146;6.576;2022-09-13T06:28:49;17.20;99.90
42907;DHT22;28552;51.146;6.576;2022-09-13T06:31:50;17.20;99.90
42907;DHT22;28552;51.146;6.576;2022-09-13T06:34:51;17.20;99.90
42907;DHT22;28552;51.146;6.576;2022-09-13T06:37:54;17.30;99.90
42907;DHT22;28552;51.146;6.576;2022-09-13T06:41:08;17.30;99.90
42907;DHT22;28552;51.146;6.576;2022-09-13T06:44:09;17.40;99.90
42907;DHT22;28552;51.146;6.576;2022-09-13T06:47:11;17.40;99.90
42907;DHT22;28552;51.146;6.576;2022-09-13T06:50:12;17.50;99.90
42907;DHT22;28552;51.146;6.576;2022-09-13T06:53:13;17.60;99.90
42907;DHT22;28552;51.146;6.576;2022-09-13T06:56:19;17.60;99.90
42907;DHT22;28552;51.146;6.576;2022-09-13T06:59:20;17.70;99.90
42907;DHT22;28552;51.146;6.576;2022-09-13T07:02:20;17.80;99.90
42907;DHT22;28552;51.146;6.576;2022-09-13T07:05:21;17.80;99.90
42907;DHT22;28552;51.146;6.576;2022-09-13T07:08:21;17.90;99.90
42907;DHT22;28552;51.146;6.576;2022-09-13T07:11:24;17.90;99.90
42907;DHT22;28552;51.146;6.576;2022-09-13T07:14:27;18.00;99.90
42907;DHT22;28552;51.146;6.576;2022-09-13T07:17:28;18.00;99.90
42907;DHT22;28552;51.146;6.576;2022-09-13T07:20:29;18.10;99.90
42907;DHT22;28552;51.146;6.576;2022-09-13T07:23:30;18.10;99.90
42907;DHT22;28552;51.146;6.576;2022-09-13T07:26:31;18.20;99.90
42907;DHT22;28552;51.146;6.576;2022-09-13T07:29:32;18.30;99.90
42907;DHT22;28552;51.146;6.576;2022-09-13T07:32:33;18.40;99.90
42907;DHT22;28552;51.146;6.576;2022-09-13T07:35:33;18.40;99.90
42907;DHT22;28552;51.146;6.576;2022-09-13T07:38:35;18.50;99.90
42907;DHT22;28552;51.146;6.576;2022-09-13T07:41:36;18.50;99.90
42907;DHT22;28552;51.146;6.576;2022-09-13T07:44:36;18.60;99.90
42907;DHT22;28552;51.146;6.576;2022-09-13T07:47:37;18.70;99.90
42907;DHT22;28552;51.146;6.576;2022-09-13T07:50:37;18.70;99.90
42907;DHT22;28552;51.146;6.576;2022-09-13T07:53:39;18.80;99.90
42907;DHT22;28552;51.146;6.576;2022-09-13T07:56:40;18.80;99.90
42907;DHT22;28552;51.146;6.576;2022-09-13T07:59:41;18.90;99.90
42907;DHT22;28552;51.146;6.576;2022-09-13T08:02:41;19.00;99.90
42907;DHT22;28552;51.146;6.576;2022-09-13T08:05:42;19.00;99.90
42907;DHT22;28552;51.146;6.576;2022-09-13T08:08:42;19.10;99.90
42907;DHT22;28552;51.146;6.576;2022-09-13T08:11:46;19.20;99.90
42907;DHT22;28552;51.146;6.576;2022-09-13T08:14:47;19.40;99.90
42907;DHT22;28552;51.146;6.576;2022-09-13T08:17:47;19.50;99.90
42907;DHT22;28552;51.146;6.576;2022-09-13T08:20:48;19.60;99.90
42907;DHT22;28552;51.146;6.576;2022-09-13T08:23:49;19.70;99.90
42907;DHT22;28552;51.146;6.576;2022-09-13T08:26:54;19.70;99.90
42907;DHT22;28552;51.146;6.576;2022-09-13T08:29:54;19.80;99.90
42907;DHT22;28552;51.146;6.576;2022-09-13T08:32:55;19.90;99.90
42907;DHT22;28552;51.146;6.576;2022-09-13T08:35:55;19.90;99.90
42907;DHT22;28552;51.146;6.576;2022-09-13T08:38:59;19.90;99.90
42907;DHT22;28552;51.146;6.576;2022-09-13T08:42:02;19.90;99.90
42907;DHT22;28552;51.146;6.576;2022-09-13T08:45:07;19.90;99.90
42907;DHT22;28552;51.146;6.576;2022-09-13T08:48:12;20.00;99.90
42907;DHT22;28552;51.146;6.576;2022-09-13T08:54:41;20.00;99.90
42907;DHT22;28552;51.146;6.576;2022-09-13T08:57:54;20.00;99.90
42907;DHT22;28552;51.146;6.576;2022-09-13T09:04:41;20.10;99.90
42907;DHT22;28552;51.146;6.576;2022-09-13T09:07:53;20.20;99.90
42907;DHT22;28552;51.146;6.576;2022-09-13T09:11:02;20.30;99.90
42907;DHT22;28552;51.146;6.576;2022-09-13T09:14:11;20.40;99.90
42907;DHT22;28552;51.146;6.576;2022-09-13T09:17:20;20.40;99.90
42907;DHT22;28552;51.146;6.576;2022-09-13T09:23:48;20.60;99.90
42907;DHT22;28552;51.146;6.576;2022-09-13T09:26:52;20.70;99.90
42907;DHT22;28552;51.146;6.576;2022-09-13T09:29:56;20.70;99.90
42907;DHT22;28552;51.146;6.576;2022-09-13T09:33:04;20.80;99.90
42907;DHT22;28552;51.146;6.576;2022-09-13T09:36:26;20.90;99.90
42907;DHT22;28552;51.146;6.576;2022-09-13T09:39:29;21.10;99.90
42907;DHT22;28552;51.146;6.576;2022-09-13T09:42:40;21.10;99.90
42907;DHT22;28552;51.146;6.576;2022-09-13T09:45:42;21.20;99.90
42907;DHT22;28552;51.146;6.576;2022-09-13T09:48:49;21.20;99.90
42907;DHT22;28552;51.146;6.576;2022-09-13T09:51:51;21.30;99.90
42907;DHT22;28552;51.146;6.576;2022-09-13T09:54:53;21.50;99.90
42907;DHT22;28552;51.146;6.576;2022-09-13T09:57:59;21.50;99.90
42907;DHT22;28552;51.146;6.576;2022-09-13T10:01:00;21.60;99.90
42907;DHT22;28552;51.146;6.576;2022-09-13T10:04:17;21.60;99.90
42907;DHT22;28552;51.146;6.576;2022-09-13T10:07:27;21.70;99.90
42907;DHT22;28552;51.146;6.576;2022-09-13T10:13:36;21.80;99.90
42907;DHT22;28552;51.146;6.576;2022-09-13T10:16:38;21.80;99.90
42907;DHT22;28552;51.146;6.576;2022-09-13T10:19:38;21.90;99.90
42907;DHT22;28552;51.146;6.576;2022-09-13T10:22:40;21.90;99.90
42907;DHT22;28552;51.146;6.576;2022-09-13T10:25:45;21.90;99.90
42907;DHT22;28552;51.146;6.576;2022-09-13T10:28:59;22.00;99.90
42907;DHT22;28552;51.146;6.576;2022-09-13T10:32:07;22.10;99.90
42907;DHT22;28552;51.146;6.576;2022-09-13T10:35:16;22.20;99.90
42907;DHT22;28552;51.146;6.576;2022-09-13T10:38:26;22.30;99.90
42907;DHT22;28552;51.146;6.576;2022-09-13T10:41:36;22.40;99.90
42907;DHT22;28552;51.146;6.576;2022-09-13T10:47:44;22.40;99.90
42907;DHT22;28552;51.146;6.576;2022-09-13T10:54:20;22.50;99.90
42907;DHT22;28552;51.146;6.576;2022-09-13T10:57:37;22.50;99.90
42907;DHT22;28552;51.146;6.576;2022-09-13T11:10:42;22.70;99.90
42907;DHT22;28552;51.146;6.576;2022-09-13T11:13:57;22.70;99.90
42907;DHT22;28552;51.146;6.576;2022-09-13T11:17:24;22.80;99.90
42907;DHT22;28552;51.146;6.576;2022-09-13T11:24:09;23.00;99.90
42907;DHT22;28552;51.146;6.576;2022-09-13T11:27:34;23.10;99.90
42907;DHT22;28552;51.146;6.576;2022-09-13T11:34:40;23.30;99.90
42907;DHT22;28552;51.146;6.576;2022-09-13T11:37:36;23.40;99.90
42907;DHT22;28552;51.146;6.576;2022-09-13T11:47:47;23.50;99.90
42907;DHT22;28552;51.146;6.576;2022-09-13T11:57:51;23.70;99.90
42907;DHT22;28552;51.146;6.576;2022-09-13T12:00:56;23.80;99.90
42907;DHT22;28552;51.146;6.576;2022-09-13T12:07:05;24.00;99.90
42907;DHT22;28552;51.146;6.576;2022-09-13T12:10:17;24.00;99.90
42907;DHT22;28552;51.146;6.576;2022-09-13T12:13:26;24.00;99.90
42907;DHT22;28552;51.146;6.576;2022-09-13T12:16:32;23.90;99.90
42907;DHT22;28552;51.146;6.576;2022-09-13T12:19:42;23.90;99.90
42907;DHT22;28552;51.146;6.576;2022-09-13T12:22:44;24.00;99.90
42907;DHT22;28552;51.146;6.576;2022-09-13T12:25:53;24.10;99.90
42907;DHT22;28552;51.146;6.576;2022-09-13T12:29:10;24.20;99.90
42907;DHT22;28552;51.146;6.576;2022-09-13T12:32:13;24.30;99.90
42907;DHT22;28552;51.146;6.576;2022-09-13T12:35:31;24.40;99.90
42907;DHT22;28552;51.146;6.576;2022-09-13T12:42:02;24.60;99.90
42907;DHT22;28552;51.146;6.576;2022-09-13T12:55:24;24.50;99.90
42907;DHT22;28552;51.146;6.576;2022-09-13T12:58:51;24.50;99.90
42907;DHT22;28552;51.146;6.576;2022-09-13T13:01:55;24.50;99.90
42907;DHT22;28552;51.146;6.576;2022-09-13T13:05:04;24.50;99.90
42907;DHT22;28552;51.146;6.576;2022-09-13T13:11:27;24.70;99.90
42907;DHT22;28552;51.146;6.576;2022-09-13T13:14:46;24.80;99.90
42907;DHT22;28552;51.146;6.576;2022-09-13T13:17:51;24.90;99.90
42907;DHT22;28552;51.146;6.576;2022-09-13T13:27:37;25.00;99.90
42907;DHT22;28552;51.146;6.576;2022-09-13T13:33:51;24.90;99.90
42907;DHT22;28552;51.146;6.576;2022-09-13T13:40:19;24.60;99.90
42907;DHT22;28552;51.146;6.576;2022-09-13T13:43:35;24.60;99.90
42907;DHT22;28552;51.146;6.576;2022-09-13T13:46:36;24.60;99.90
42907;DHT22;28552;51.146;6.576;2022-09-13T13:52:51;24.70;99.90
42907;DHT22;28552;51.146;6.576;2022-09-13T13:56:07;24.70;99.90
42907;DHT22;28552;51.146;6.576;2022-09-13T13:59:23;24.70;99.90
42907;DHT22;28552;51.146;6.576;2022-09-13T14:02:30;24.80;99.90
42907;DHT22;28552;51.146;6.576;2022-09-13T14:09:07;24.90;99.90
42907;DHT22;28552;51.146;6.576;2022-09-13T14:15:26;24.80;99.90
42907;DHT22;28552;51.146;6.576;2022-09-13T14:18:50;24.80;99.90
42907;DHT22;28552;51.146;6.576;2022-09-13T14:22:14;24.80;99.90
42907;DHT22;28552;51.146;6.576;2022-09-13T14:25:23;24.70;99.90
42907;DHT22;28552;51.146;6.576;2022-09-13T14:28:24;24.70;99.90
42907;DHT22;28552;51.146;6.576;2022-09-13T14:31:25;24.70;99.90
42907;DHT22;28552;51.146;6.576;2022-09-13T14:34:29;24.70;99.90
42907;DHT22;28552;51.146;6.576;2022-09-13T14:37:33;24.60;99.90
42907;DHT22;28552;51.146;6.576;2022-09-13T14:40:34;24.60;99.90
42907;DHT22;28552;51.146;6.576;2022-09-13T14:43:34;24.60;99.90
42907;DHT22;28552;51.146;6.576;2022-09-13T14:46:38;24.70;99.90
42907;DHT22;28552;51.146;6.576;2022-09-13T14:49:43;24.70;99.90
42907;DHT22;28552;51.146;6.576;2022-09-13T14:52:54;24.70;99.90
42907;DHT22;28552;51.146;6.576;2022-09-13T14:56:03;24.80;99.90
42907;DHT22;28552;51.146;6.576;2022-09-13T14:59:13;24.90;99.90
42907;DHT22;28552;51.146;6.576;2022-09-13T15:02:21;25.00;99.90
42907;DHT22;28552;51.146;6.576;2022-09-13T15:05:26;25.00;99.90
42907;DHT22;28552;51.146;6.576;2022-09-13T15:08:47;25.00;99.90
42907;DHT22;28552;51.146;6.576;2022-09-13T15:11:57;24.90;99.90
42907;DHT22;28552;51.146;6.576;2022-09-13T15:15:22;24.80;99.90
42907;DHT22;28552;51.146;6.576;2022-09-13T15:18:28;24.70;99.90
42907;DHT22;28552;51.146;6.576;2022-09-13T15:21:34;24.60;99.90
42907;DHT22;28552;51.146;6.576;2022-09-13T15:24:36;24.50;99.90
42907;DHT22;28552;51.146;6.576;2022-09-13T15:27:43;24.40;99.90
42907;DHT22;28552;51.146;6.576;2022-09-13T15:30:44;24.30;99.90
42907;DHT22;28552;51.146;6.576;2022-09-13T15:33:45;24.30;99.90
42907;DHT22;28552;51.146;6.576;2022-09-13T15:36:47;24.20;99.90
42907;DHT22;28552;51.146;6.576;2022-09-13T15:40:00;24.10;99.90
42907;DHT22;28552;51.146;6.576;2022-09-13T15:43:01;24.00;99.90
42907;DHT22;28552;51.146;6.576;2022-09-13T15:46:01;24.00;99.90
42907;DHT22;28552;51.146;6.576;2022-09-13T15:49:03;23.90;99.90
42907;DHT22;28552;51.146;6.576;2022-09-13T15:52:05;23.90;99.90
42907;DHT22;28552;51.146;6.576;2022-09-13T15:55:10;23.80;99.90
42907;DHT22;28552;51.146;6.576;2022-09-13T15:58:10;23.70;99.90
42907;DHT22;28552;51.146;6.576;2022-09-13T16:01:12;23.70;99.90
42907;DHT22;28552;51.146;6.576;2022-09-13T16:04:12;23.60;99.90
42907;DHT22;28552;51.146;6.576;2022-09-13T16:07:13;23.60;99.90
42907;DHT22;28552;51.146;6.576;2022-09-13T16:10:19;23.60;99.90
42907;DHT22;28552;51.146;6.576;2022-09-13T16:13:20;23.50;99.90
42907;DHT22;28552;51.146;6.576;2022-09-13T16:16:20;23.50;99.90
42907;DHT22;28552;51.146;6.576;2022-09-13T16:19:22;23.50;99.90
42907;DHT22;28552;51.146;6.576;2022-09-13T16:22:22;23.50;99.90
42907;DHT22;28552;51.146;6.576;2022-09-13T16:25:23;23.40;99.90
42907;DHT22;28552;51.146;6.576;2022-09-13T16:28:24;23.40;99.90
42907;DHT22;28552;51.146;6.576;2022-09-13T16:31:25;23.30;99.90
42907;DHT22;28552;51.146;6.576;2022-09-13T16:34:26;23.20;99.90
42907;DHT22;28552;51.146;6.576;2022-09-13T16:37:26;23.20;99.90
42907;DHT22;28552;51.146;6.576;2022-09-13T16:40:27;23.10;99.90
42907;DHT22;28552;51.146;6.576;2022-09-13T16:43:27;23.00;99.90
42907;DHT22;28552;51.146;6.576;2022-09-13T16:46:28;23.00;99.90
42907;DHT22;28552;51.146;6.576;2022-09-13T16:49:30;22.90;99.90
42907;DHT22;28552;51.146;6.576;2022-09-13T16:52:31;22.90;99.90
42907;DHT22;28552;51.146;6.576;2022-09-13T16:55:32;22.80;99.90
42907;DHT22;28552;51.146;6.576;2022-09-13T16:58:36;22.70;99.90
42907;DHT22;28552;51.146;6.576;2022-09-13T17:01:36;22.60;99.90
42907;DHT22;28552;51.146;6.576;2022-09-13T17:04:37;22.60;99.90
42907;DHT22;28552;51.146;6.576;2022-09-13T17:07:38;22.40;99.90
42907;DHT22;28552;51.146;6.576;2022-09-13T17:10:39;22.30;99.90
42907;DHT22;28552;51.146;6.576;2022-09-13T17:13:40;22.20;99.90
42907;DHT22;28552;51.146;6.576;2022-09-13T17:16:44;22.10;99.90
42907;DHT22;28552;51.146;6.576;2022-09-13T17:19:44;22.00;99.90
42907;DHT22;28552;51.146;6.576;2022-09-13T17:22:46;21.90;99.90
42907;DHT22;28552;51.146;6.576;2022-09-13T17:25:47;21.80;99.90
42907;DHT22;28552;51.146;6.576;2022-09-13T17:28:48;21.70;99.90
42907;DHT22;28552;51.146;6.576;2022-09-13T17:31:50;21.70;99.90
42907;DHT22;28552;51.146;6.576;2022-09-13T17:34:51;21.60;99.90
42907;DHT22;28552;51.146;6.576;2022-09-13T17:37:52;21.60;99.90
42907;DHT22;28552;51.146;6.576;2022-09-13T17:41:01;21.50;99.90
42907;DHT22;28552;51.146;6.576;2022-09-13T17:44:02;21.50;99.90
42907;DHT22;28552;51.146;6.576;2022-09-13T17:47:03;21.40;99.90
42907;DHT22;28552;51.146;6.576;2022-09-13T17:50:05;21.30;99.90
42907;DHT22;28552;51.146;6.576;2022-09-13T17:53:06;21.20;99.90
42907;DHT22;28552;51.146;6.576;2022-09-13T17:56:07;21.10;99.90
42907;DHT22;28552;51.146;6.576;2022-09-13T17:59:11;21.00;99.90
42907;DHT22;28552;51.146;6.576;2022-09-13T18:02:12;20.90;99.90
42907;DHT22;28552;51.146;6.576;2022-09-13T18:05:13;20.90;99.90
42907;DHT22;28552;51.146;6.576;2022-09-13T18:08:13;20.80;99.90
42907;DHT22;28552;51.146;6.576;2022-09-13T18:11:15;20.70;99.90
42907;DHT22;28552;51.146;6.576;2022-09-13T18:14:18;20.70;99.90
42907;DHT22;28552;51.146;6.576;2022-09-13T18:17:19;20.60;99.90
42907;DHT22;28552;51.146;6.576;2022-09-13T18:20:19;20.60;99.90
42907;DHT22;28552;51.146;6.576;2022-09-13T18:23:20;20.50;99.90
42907;DHT22;28552;51.146;6.576;2022-09-13T18:26:21;20.50;99.90
42907;DHT22;28552;51.146;6.576;2022-09-13T18:29:22;20.50;99.90
42907;DHT22;28552;51.146;6.576;2022-09-13T18:32:23;20.40;99.90
42907;DHT22;28552;51.146;6.576;2022-09-13T18:35:24;20.30;99.90
42907;DHT22;28552;51.146;6.576;2022-09-13T18:38:25;20.30;99.90
42907;DHT22;28552;51.146;6.576;2022-09-13T18:41:30;20.30;99.90
42907;DHT22;28552;51.146;6.576;2022-09-13T18:44:31;20.30;99.90
42907;DHT22;28552;51.146;6.576;2022-09-13T18:47:33;20.20;99.90
42907;DHT22;28552;51.146;6.576;2022-09-13T18:50:33;20.20;99.90
42907;DHT22;28552;51.146;6.576;2022-09-13T18:53:34;20.10;99.90
42907;DHT22;28552;51.146;6.576;2022-09-13T18:56:35;20.10;99.90
42907;DHT22;28552;51.146;6.576;2022-09-13T18:59:36;20.10;99.90
42907;DHT22;28552;51.146;6.576;2022-09-13T19:02:36;20.10;99.90
42907;DHT22;28552;51.146;6.576;2022-09-13T19:05:37;20.00;99.90
42907;DHT22;28552;51.146;6.576;2022-09-13T19:08:39;20.10;99.90
42907;DHT22;28552;51.146;6.576;2022-09-13T19:11:42;20.10;99.90
42907;DHT22;28552;51.146;6.576;2022-09-13T19:14:44;20.10;99.90
42907;DHT22;28552;51.146;6.576;2022-09-13T19:17:45;20.10;99.90
42907;DHT22;28552;51.146;6.576;2022-09-13T19:20:46;20.00;99.90
42907;DHT22;28552;51.146;6.576;2022-09-13T19:23:48;19.90;99.90
42907;DHT22;28552;51.146;6.576;2022-09-13T19:26:50;19.90;99.90
42907;DHT22;28552;51.146;6.576;2022-09-13T19:29:51;19.80;99.90
42907;DHT22;28552;51.146;6.576;2022-09-13T19:32:53;19.80;99.90
42907;DHT22;28552;51.146;6.576;2022-09-13T19:35:54;19.90;99.90
42907;DHT22;28552;51.146;6.576;2022-09-13T19:38:56;19.80;99.90
42907;DHT22;28552;51.146;6.576;2022-09-13T19:41:59;19.80;99.90
42907;DHT22;28552;51.146;6.576;2022-09-13T19:45:00;19.70;99.90
42907;DHT22;28552;51.146;6.576;2022-09-13T19:48:00;19.70;99.90
42907;DHT22;28552;51.146;6.576;2022-09-13T19:51:02;19.60;99.90
42907;DHT22;28552;51.146;6.576;2022-09-13T19:54:06;19.60;99.90
42907;DHT22;28552;51.146;6.576;2022-09-13T19:57:07;19.50;99.90
42907;DHT22;28552;51.146;6.576;2022-09-13T20:00:09;19.50;99.90
42907;DHT22;28552;51.146;6.576;2022-09-13T20:03:10;19.50;99.90
42907;DHT22;28552;51.146;6.576;2022-09-13T20:06:11;19.50;99.90
42907;DHT22;28552;51.146;6.576;2022-09-13T20:09:15;19.40;99.90
42907;DHT22;28552;51.146;6.576;2022-09-13T20:12:16;19.40;99.90
42907;DHT22;28552;51.146;6.576;2022-09-13T20:15:19;19.40;99.90
42907;DHT22;28552;51.146;6.576;2022-09-13T20:18:19;19.30;99.90
42907;DHT22;28552;51.146;6.576;2022-09-13T20:21:20;19.30;99.90
42907;DHT22;28552;51.146;6.576;2022-09-13T20:24:20;19.20;99.90
42907;DHT22;28552;51.146;6.576;2022-09-13T20:27:21;19.20;99.90
42907;DHT22;28552;51.146;6.576;2022-09-13T20:30:21;19.10;99.90
42907;DHT22;28552;51.146;6.576;2022-09-13T20:33:22;19.10;99.90
42907;DHT22;28552;51.146;6.576;2022-09-13T20:36:24;19.00;99.90
42907;DHT22;28552;51.146;6.576;2022-09-13T20:39:24;19.00;99.90
42907;DHT22;28552;51.146;6.576;2022-09-13T20:42:25;19.00;99.90
42907;DHT22;28552;51.146;6.576;2022-09-13T20:45:26;18.90;99.90
42907;DHT22;28552;51.146;6.576;2022-09-13T20:48:26;18.90;99.90
42907;DHT22;28552;51.146;6.576;2022-09-13T20:51:27;18.90;99.90
42907;DHT22;28552;51.146;6.576;2022-09-13T20:54:27;18.90;99.90
42907;DHT22;28552;51.146;6.576;2022-09-13T20:57:28;18.90;99.90
42907;DHT22;28552;51.146;6.576;2022-09-13T21:00:28;18.90;99.90
42907;DHT22;28552;51.146;6.576;2022-09-13T21:03:29;18.90;99.90
42907;DHT22;28552;51.146;6.576;2022-09-13T21:06:35;18.90;99.90
42907;DHT22;28552;51.146;6.576;2022-09-13T21:09:35;18.90;99.90
42907;DHT22;28552;51.146;6.576;2022-09-13T21:12:36;18.80;99.90
42907;DHT22;28552;51.146;6.576;2022-09-13T21:15:37;18.80;99.90
42907;DHT22;28552;51.146;6.576;2022-09-13T21:18:39;18.80;99.90
42907;DHT22;28552;51.146;6.576;2022-09-13T21:21:41;18.80;99.90
42907;DHT22;28552;51.146;6.576;2022-09-13T21:24:41;18.80;99.90
42907;DHT22;28552;51.146;6.576;2022-09-13T21:27:44;18.70;99.90